sensor_id;sensor_type;location;lat;lon;timestamp;P1;durP1;ratioP1;P2;durP2;ratioP2
19358;SDS011;9815;52.334;20.890;2023-04-24T00:01:34;14.40;;;6.97;;
19358;SDS011;9815;52.334;20.890;2023-04-24T00:04:03;15.40;;;8.07;;
19358;SDS011;9815;52.334;20.890;2023-04-24T00:06:32;11.67;;;7.27;;
19358;SDS011;9815;52.334;20.890;2023-04-24T00:09:01;18.97;;;7.53;;
19358;SDS011;9815;52.334;20.890;2023-04-24T00:11:31;12.97;;;7.43;;
19358;SDS011;9815;52.334;20.890;2023-04-24T00:13:59;17.03;;;8.03;;
19358;SDS011;9815;52.334;20.890;2023-04-24T00:16:27;19.73;;;7.67;;
19358;SDS011;9815;52.334;20.890;2023-04-24T00:18:56;16.07;;;8.10;;
19358;SDS011;9815;52.334;20.890;2023-04-24T00:21:24;14.17;;;8.10;;
19358;SDS011;9815;52.334;20.890;2023-04-24T00:23:53;14.50;;;8.10;;
19358;SDS011;9815;52.334;20.890;2023-04-24T00:26:21;14.20;;;7.63;;
19358;SDS011;9815;52.334;20.890;2023-04-24T00:28:51;13.07;;;7.93;;
19358;SDS011;9815;52.334;20.890;2023-04-24T00:31:20;14.93;;;7.73;;
19358;SDS011;9815;52.334;20.890;2023-04-24T00:33:48;16.37;;;8.73;;
19358;SDS011;9815;52.334;20.890;2023-04-24T00:36:16;14.33;;;8.30;;
19358;SDS011;9815;52.334;20.890;2023-04-24T00:38:46;15.43;;;8.43;;
19358;SDS011;9815;52.334;20.890;2023-04-24T00:41:14;14.87;;;8.50;;
19358;SDS011;9815;52.334;20.890;2023-04-24T00:43:42;13.90;;;8.47;;
19358;SDS011;9815;52.334;20.890;2023-04-24T00:46:12;15.07;;;8.80;;
19358;SDS011;9815;52.334;20.890;2023-04-24T00:48:41;16.30;;;8.10;;
19358;SDS011;9815;52.334;20.890;2023-04-24T00:51:11;14.03;;;8.97;;
19358;SDS011;9815;52.334;20.890;2023-04-24T00:53:39;18.37;;;9.17;;
19358;SDS011;9815;52.334;20.890;2023-04-24T00:56:07;15.00;;;8.37;;
19358;SDS011;9815;52.334;20.890;2023-04-24T00:58:35;15.70;;;8.47;;
19358;SDS011;9815;52.334;20.890;2023-04-24T01:01:05;14.43;;;8.50;;
19358;SDS011;9815;52.334;20.890;2023-04-24T01:03:35;14.77;;;8.73;;
19358;SDS011;9815;52.334;20.890;2023-04-24T01:06:04;18.23;;;9.10;;
19358;SDS011;9815;52.334;20.890;2023-04-24T01:08:33;17.77;;;9.07;;
19358;SDS011;9815;52.334;20.890;2023-04-24T01:11:03;25.33;;;9.37;;
19358;SDS011;9815;52.334;20.890;2023-04-24T01:13:32;20.60;;;8.97;;
19358;SDS011;9815;52.334;20.890;2023-04-24T01:16:02;17.47;;;8.77;;
19358;SDS011;9815;52.334;20.890;2023-04-24T01:18:30;18.60;;;8.47;;
19358;SDS011;9815;52.334;20.890;2023-04-24T01:20:59;16.50;;;9.23;;
19358;SDS011;9815;52.334;20.890;2023-04-24T01:23:32;14.07;;;8.70;;
19358;SDS011;9815;52.334;20.890;2023-04-24T01:26:01;12.77;;;9.10;;
19358;SDS011;9815;52.334;20.890;2023-04-24T01:28:29;20.20;;;8.97;;
19358;SDS011;9815;52.334;20.890;2023-04-24T01:30:58;13.57;;;8.57;;
19358;SDS011;9815;52.334;20.890;2023-04-24T01:33:27;14.40;;;8.77;;
19358;SDS011;9815;52.334;20.890;2023-04-24T01:35:55;16.70;;;8.50;;
19358;SDS011;9815;52.334;20.890;2023-04-24T01:38:23;15.77;;;8.90;;
19358;SDS011;9815;52.334;20.890;2023-04-24T01:40:53;17.83;;;9.40;;
19358;SDS011;9815;52.334;20.890;2023-04-24T01:43:23;17.10;;;9.10;;
19358;SDS011;9815;52.334;20.890;2023-04-24T01:45:52;19.37;;;10.03;;
19358;SDS011;9815;52.334;20.890;2023-04-24T01:48:20;16.40;;;9.17;;
19358;SDS011;9815;52.334;20.890;2023-04-24T01:50:49;18.93;;;9.57;;
19358;SDS011;9815;52.334;20.890;2023-04-24T01:53:17;27.20;;;10.23;;
19358;SDS011;9815;52.334;20.890;2023-04-24T01:55:45;21.93;;;10.40;;
19358;SDS011;9815;52.334;20.890;2023-04-24T01:58:15;19.07;;;10.13;;
19358;SDS011;9815;52.334;20.890;2023-04-24T02:00:44;18.97;;;10.17;;
19358;SDS011;9815;52.334;20.890;2023-04-24T02:03:13;17.33;;;10.33;;
19358;SDS011;9815;52.334;20.890;2023-04-24T02:05:43;16.23;;;10.27;;
19358;SDS011;9815;52.334;20.890;2023-04-24T02:08:11;18.33;;;10.40;;
19358;SDS011;9815;52.334;20.890;2023-04-24T02:10:40;22.33;;;10.23;;
19358;SDS011;9815;52.334;20.890;2023-04-24T02:13:08;18.50;;;10.77;;
19358;SDS011;9815;52.334;20.890;2023-04-24T02:15:38;15.83;;;10.00;;
19358;SDS011;9815;52.334;20.890;2023-04-24T02:18:06;16.63;;;10.37;;
19358;SDS011;9815;52.334;20.890;2023-04-24T02:20:34;16.73;;;9.97;;
19358;SDS011;9815;52.334;20.890;2023-04-24T02:23:03;20.20;;;10.77;;
19358;SDS011;9815;52.334;20.890;2023-04-24T02:25:31;18.63;;;10.70;;
19358;SDS011;9815;52.334;20.890;2023-04-24T02:28:00;17.43;;;10.50;;
19358;SDS011;9815;52.334;20.890;2023-04-24T02:30:29;21.63;;;10.93;;
19358;SDS011;9815;52.334;20.890;2023-04-24T02:32:59;19.43;;;9.80;;
19358;SDS011;9815;52.334;20.890;2023-04-24T02:35:27;19.03;;;10.50;;
19358;SDS011;9815;52.334;20.890;2023-04-24T02:37:55;19.13;;;10.33;;
19358;SDS011;9815;52.334;20.890;2023-04-24T02:40:24;22.87;;;11.10;;
19358;SDS011;9815;52.334;20.890;2023-04-24T02:42:52;18.63;;;10.53;;
19358;SDS011;9815;52.334;20.890;2023-04-24T02:45:20;19.63;;;11.10;;
19358;SDS011;9815;52.334;20.890;2023-04-24T02:47:48;17.70;;;10.20;;
19358;SDS011;9815;52.334;20.890;2023-04-24T02:50:17;19.30;;;10.37;;
19358;SDS011;9815;52.334;20.890;2023-04-24T02:52:46;17.83;;;10.70;;
19358;SDS011;9815;52.334;20.890;2023-04-24T02:55:14;23.17;;;10.67;;
19358;SDS011;9815;52.334;20.890;2023-04-24T02:57:42;20.20;;;10.80;;
19358;SDS011;9815;52.334;20.890;2023-04-24T03:00:11;24.90;;;10.93;;
19358;SDS011;9815;52.334;20.890;2023-04-24T03:02:40;17.60;;;11.23;;
19358;SDS011;9815;52.334;20.890;2023-04-24T03:05:08;20.03;;;11.23;;
19358;SDS011;9815;52.334;20.890;2023-04-24T03:07:39;24.83;;;11.43;;
19358;SDS011;9815;52.334;20.890;2023-04-24T03:10:08;18.57;;;10.67;;
19358;SDS011;9815;52.334;20.890;2023-04-24T03:12:37;22.37;;;12.27;;
19358;SDS011;9815;52.334;20.890;2023-04-24T03:15:05;27.87;;;12.63;;
19358;SDS011;9815;52.334;20.890;2023-04-24T03:17:36;24.90;;;13.77;;
19358;SDS011;9815;52.334;20.890;2023-04-24T03:20:05;26.73;;;14.33;;
19358;SDS011;9815;52.334;20.890;2023-04-24T03:22:35;26.60;;;13.03;;
19358;SDS011;9815;52.334;20.890;2023-04-24T03:25:08;22.43;;;12.87;;
19358;SDS011;9815;52.334;20.890;2023-04-24T03:27:37;19.90;;;12.60;;
19358;SDS011;9815;52.334;20.890;2023-04-24T03:30:25;20.80;;;12.20;;
19358;SDS011;9815;52.334;20.890;2023-04-24T03:32:58;22.37;;;12.07;;
19358;SDS011;9815;52.334;20.890;2023-04-24T03:35:29;28.13;;;12.80;;
19358;SDS011;9815;52.334;20.890;2023-04-24T03:38:00;23.70;;;12.07;;
19358;SDS011;9815;52.334;20.890;2023-04-24T03:40:50;24.93;;;11.37;;
19358;SDS011;9815;52.334;20.890;2023-04-24T03:43:48;22.13;;;12.17;;
19358;SDS011;9815;52.334;20.890;2023-04-24T03:46:16;23.43;;;11.80;;
19358;SDS011;9815;52.334;20.890;2023-04-24T03:48:52;21.97;;;11.90;;
19358;SDS011;9815;52.334;20.890;2023-04-24T03:51:25;21.30;;;11.37;;
19358;SDS011;9815;52.334;20.890;2023-04-24T03:53:59;20.47;;;11.87;;
19358;SDS011;9815;52.334;20.890;2023-04-24T03:56:31;21.47;;;12.20;;
19358;SDS011;9815;52.334;20.890;2023-04-24T03:59:00;27.37;;;11.73;;
19358;SDS011;9815;52.334;20.890;2023-04-24T04:01:29;25.43;;;11.70;;
19358;SDS011;9815;52.334;20.890;2023-04-24T04:04:02;21.83;;;11.57;;
19358;SDS011;9815;52.334;20.890;2023-04-24T04:06:31;23.80;;;10.97;;
19358;SDS011;9815;52.334;20.890;2023-04-24T04:09:00;21.27;;;10.57;;
19358;SDS011;9815;52.334;20.890;2023-04-24T04:11:30;21.17;;;10.43;;
19358;SDS011;9815;52.334;20.890;2023-04-24T04:13:59;21.17;;;10.67;;
19358;SDS011;9815;52.334;20.890;2023-04-24T04:16:27;24.07;;;12.50;;
19358;SDS011;9815;52.334;20.890;2023-04-24T04:19:01;23.30;;;11.63;;
19358;SDS011;9815;52.334;20.890;2023-04-24T04:21:30;31.90;;;12.33;;
19358;SDS011;9815;52.334;20.890;2023-04-24T04:24:23;24.13;;;11.13;;
19358;SDS011;9815;52.334;20.890;2023-04-24T04:26:54;36.57;;;11.83;;
19358;SDS011;9815;52.334;20.890;2023-04-24T04:29:28;22.17;;;10.97;;
19358;SDS011;9815;52.334;20.890;2023-04-24T04:31:58;43.37;;;11.43;;
19358;SDS011;9815;52.334;20.890;2023-04-24T04:34:26;29.80;;;11.60;;
19358;SDS011;9815;52.334;20.890;2023-04-24T04:36:56;26.57;;;10.37;;
19358;SDS011;9815;52.334;20.890;2023-04-24T04:39:44;25.60;;;10.30;;
19358;SDS011;9815;52.334;20.890;2023-04-24T04:42:20;20.47;;;9.67;;
19358;SDS011;9815;52.334;20.890;2023-04-24T04:44:50;26.33;;;10.77;;
19358;SDS011;9815;52.334;20.890;2023-04-24T04:47:24;27.70;;;10.27;;
19358;SDS011;9815;52.334;20.890;2023-04-24T04:49:56;22.70;;;10.67;;
19358;SDS011;9815;52.334;20.890;2023-04-24T04:52:26;18.03;;;10.20;;
19358;SDS011;9815;52.334;20.890;2023-04-24T04:55:03;18.67;;;9.33;;
19358;SDS011;9815;52.334;20.890;2023-04-24T04:58:03;14.87;;;8.80;;
19358;SDS011;9815;52.334;20.890;2023-04-24T05:00:32;16.13;;;9.17;;
19358;SDS011;9815;52.334;20.890;2023-04-24T05:03:07;18.17;;;8.00;;
19358;SDS011;9815;52.334;20.890;2023-04-24T05:05:51;15.90;;;7.80;;
19358;SDS011;9815;52.334;20.890;2023-04-24T05:08:20;14.70;;;7.53;;
19358;SDS011;9815;52.334;20.890;2023-04-24T05:10:53;15.57;;;7.67;;
19358;SDS011;9815;52.334;20.890;2023-04-24T05:13:25;14.17;;;7.27;;
19358;SDS011;9815;52.334;20.890;2023-04-24T05:16:09;17.80;;;8.20;;
19358;SDS011;9815;52.334;20.890;2023-04-24T05:18:38;12.90;;;7.60;;
19358;SDS011;9815;52.334;20.890;2023-04-24T05:21:09;16.67;;;7.37;;
19358;SDS011;9815;52.334;20.890;2023-04-24T05:23:39;16.37;;;7.83;;
19358;SDS011;9815;52.334;20.890;2023-04-24T05:26:10;14.40;;;7.00;;
19358;SDS011;9815;52.334;20.890;2023-04-24T05:28:41;13.73;;;7.30;;
19358;SDS011;9815;52.334;20.890;2023-04-24T05:31:11;16.07;;;7.00;;
19358;SDS011;9815;52.334;20.890;2023-04-24T05:33:40;17.63;;;7.03;;
19358;SDS011;9815;52.334;20.890;2023-04-24T05:36:09;11.30;;;6.87;;
19358;SDS011;9815;52.334;20.890;2023-04-24T05:38:38;18.43;;;7.03;;
19358;SDS011;9815;52.334;20.890;2023-04-24T05:41:07;10.77;;;6.70;;
19358;SDS011;9815;52.334;20.890;2023-04-24T05:43:35;14.20;;;6.50;;
19358;SDS011;9815;52.334;20.890;2023-04-24T05:46:07;20.07;;;6.77;;
19358;SDS011;9815;52.334;20.890;2023-04-24T05:48:35;15.70;;;6.80;;
19358;SDS011;9815;52.334;20.890;2023-04-24T05:51:03;12.63;;;6.63;;
19358;SDS011;9815;52.334;20.890;2023-04-24T05:53:32;13.10;;;7.10;;
19358;SDS011;9815;52.334;20.890;2023-04-24T05:56:01;15.37;;;6.70;;
19358;SDS011;9815;52.334;20.890;2023-04-24T05:58:30;16.77;;;6.77;;
19358;SDS011;9815;52.334;20.890;2023-04-24T06:00:58;13.80;;;6.23;;
19358;SDS011;9815;52.334;20.890;2023-04-24T06:03:29;15.23;;;6.87;;
19358;SDS011;9815;52.334;20.890;2023-04-24T06:05:58;16.27;;;6.53;;
19358;SDS011;9815;52.334;20.890;2023-04-24T06:08:26;14.13;;;6.93;;
19358;SDS011;9815;52.334;20.890;2023-04-24T06:10:55;12.87;;;6.53;;
19358;SDS011;9815;52.334;20.890;2023-04-24T06:13:24;14.10;;;6.57;;
19358;SDS011;9815;52.334;20.890;2023-04-24T06:16:13;14.20;;;7.23;;
19358;SDS011;9815;52.334;20.890;2023-04-24T06:18:48;12.00;;;7.00;;
19358;SDS011;9815;52.334;20.890;2023-04-24T06:21:18;18.07;;;7.40;;
19358;SDS011;9815;52.334;20.890;2023-04-24T06:23:48;21.03;;;7.97;;
19358;SDS011;9815;52.334;20.890;2023-04-24T06:26:18;18.67;;;7.93;;
19358;SDS011;9815;52.334;20.890;2023-04-24T06:28:46;20.67;;;8.47;;
19358;SDS011;9815;52.334;20.890;2023-04-24T06:31:14;22.63;;;9.07;;
19358;SDS011;9815;52.334;20.890;2023-04-24T06:33:43;17.57;;;8.37;;
19358;SDS011;9815;52.334;20.890;2023-04-24T06:36:12;19.80;;;7.93;;
19358;SDS011;9815;52.334;20.890;2023-04-24T06:38:40;18.73;;;7.53;;
19358;SDS011;9815;52.334;20.890;2023-04-24T06:41:10;15.30;;;7.33;;
19358;SDS011;9815;52.334;20.890;2023-04-24T06:43:39;15.83;;;6.47;;
19358;SDS011;9815;52.334;20.890;2023-04-24T06:46:07;12.90;;;6.37;;
19358;SDS011;9815;52.334;20.890;2023-04-24T06:48:36;12.23;;;6.47;;
19358;SDS011;9815;52.334;20.890;2023-04-24T06:51:04;14.70;;;6.50;;
19358;SDS011;9815;52.334;20.890;2023-04-24T06:53:34;14.40;;;6.00;;
19358;SDS011;9815;52.334;20.890;2023-04-24T06:56:02;11.50;;;6.03;;
19358;SDS011;9815;52.334;20.890;2023-04-24T06:58:31;11.90;;;5.83;;
19358;SDS011;9815;52.334;20.890;2023-04-24T07:01:00;14.57;;;6.57;;
19358;SDS011;9815;52.334;20.890;2023-04-24T07:03:28;9.60;;;6.90;;
19358;SDS011;9815;52.334;20.890;2023-04-24T07:05:57;16.87;;;6.57;;
19358;SDS011;9815;52.334;20.890;2023-04-24T07:08:25;12.80;;;6.53;;
19358;SDS011;9815;52.334;20.890;2023-04-24T07:10:56;15.07;;;6.80;;
19358;SDS011;9815;52.334;20.890;2023-04-24T07:13:25;16.10;;;6.43;;
19358;SDS011;9815;52.334;20.890;2023-04-24T07:15:53;12.97;;;6.47;;
19358;SDS011;9815;52.334;20.890;2023-04-24T07:18:22;15.40;;;7.10;;
19358;SDS011;9815;52.334;20.890;2023-04-24T07:20:50;15.53;;;6.47;;
19358;SDS011;9815;52.334;20.890;2023-04-24T07:23:19;13.07;;;6.83;;
19358;SDS011;9815;52.334;20.890;2023-04-24T07:25:50;12.07;;;6.10;;
19358;SDS011;9815;52.334;20.890;2023-04-24T07:28:25;15.40;;;7.47;;
19358;SDS011;9815;52.334;20.890;2023-04-24T07:30:57;17.97;;;6.57;;
19358;SDS011;9815;52.334;20.890;2023-04-24T07:33:26;17.27;;;6.63;;
19358;SDS011;9815;52.334;20.890;2023-04-24T07:35:54;17.67;;;6.93;;
19358;SDS011;9815;52.334;20.890;2023-04-24T07:38:22;13.90;;;7.03;;
19358;SDS011;9815;52.334;20.890;2023-04-24T07:40:52;15.30;;;6.80;;
19358;SDS011;9815;52.334;20.890;2023-04-24T07:43:20;11.70;;;5.90;;
19358;SDS011;9815;52.334;20.890;2023-04-24T07:45:51;14.10;;;6.73;;
19358;SDS011;9815;52.334;20.890;2023-04-24T07:48:19;12.00;;;6.50;;
19358;SDS011;9815;52.334;20.890;2023-04-24T07:50:48;20.03;;;6.33;;
19358;SDS011;9815;52.334;20.890;2023-04-24T07:53:16;10.90;;;5.87;;
19358;SDS011;9815;52.334;20.890;2023-04-24T07:55:45;10.10;;;5.83;;
19358;SDS011;9815;52.334;20.890;2023-04-24T07:58:14;13.37;;;5.93;;
19358;SDS011;9815;52.334;20.890;2023-04-24T08:00:42;12.20;;;5.93;;
19358;SDS011;9815;52.334;20.890;2023-04-24T08:03:12;12.07;;;5.37;;
19358;SDS011;9815;52.334;20.890;2023-04-24T08:05:44;11.43;;;5.47;;
19358;SDS011;9815;52.334;20.890;2023-04-24T08:08:13;12.50;;;5.73;;
19358;SDS011;9815;52.334;20.890;2023-04-24T08:10:42;14.90;;;6.13;;
19358;SDS011;9815;52.334;20.890;2023-04-24T08:13:10;17.67;;;6.43;;
19358;SDS011;9815;52.334;20.890;2023-04-24T08:15:38;14.30;;;6.20;;
19358;SDS011;9815;52.334;20.890;2023-04-24T08:18:07;17.47;;;6.00;;
19358;SDS011;9815;52.334;20.890;2023-04-24T08:20:39;10.57;;;5.10;;
19358;SDS011;9815;52.334;20.890;2023-04-24T08:23:07;13.10;;;5.63;;
19358;SDS011;9815;52.334;20.890;2023-04-24T08:25:36;13.93;;;5.87;;
19358;SDS011;9815;52.334;20.890;2023-04-24T08:28:05;13.23;;;5.70;;
19358;SDS011;9815;52.334;20.890;2023-04-24T08:30:34;19.70;;;5.90;;
19358;SDS011;9815;52.334;20.890;2023-04-24T08:33:02;23.42;;;5.93;;
19358;SDS011;9815;52.334;20.890;2023-04-24T08:35:31;9.70;;;5.35;;
19358;SDS011;9815;52.334;20.890;2023-04-24T08:38:01;10.60;;;5.45;;
19358;SDS011;9815;52.334;20.890;2023-04-24T08:40:29;13.40;;;5.85;;
19358;SDS011;9815;52.334;20.890;2023-04-24T08:43:01;12.75;;;5.82;;
19358;SDS011;9815;52.334;20.890;2023-04-24T08:45:32;16.70;;;6.05;;
19358;SDS011;9815;52.334;20.890;2023-04-24T08:48:01;14.10;;;6.43;;
19358;SDS011;9815;52.334;20.890;2023-04-24T08:50:32;14.02;;;6.40;;
19358;SDS011;9815;52.334;20.890;2023-04-24T08:53:03;13.30;;;6.07;;
19358;SDS011;9815;52.334;20.890;2023-04-24T08:55:35;11.37;;;6.13;;
19358;SDS011;9815;52.334;20.890;2023-04-24T08:58:04;21.37;;;5.70;;
19358;SDS011;9815;52.334;20.890;2023-04-24T09:00:33;11.93;;;6.07;;
19358;SDS011;9815;52.334;20.890;2023-04-24T09:03:01;12.10;;;6.20;;
19358;SDS011;9815;52.334;20.890;2023-04-24T09:05:32;14.93;;;6.57;;
19358;SDS011;9815;52.334;20.890;2023-04-24T09:08:01;16.10;;;6.10;;
19358;SDS011;9815;52.334;20.890;2023-04-24T09:10:32;13.23;;;6.83;;
19358;SDS011;9815;52.334;20.890;2023-04-24T09:13:03;11.67;;;6.80;;
19358;SDS011;9815;52.334;20.890;2023-04-24T09:15:31;22.20;;;6.67;;
19358;SDS011;9815;52.334;20.890;2023-04-24T09:18:02;13.37;;;6.57;;
19358;SDS011;9815;52.334;20.890;2023-04-24T09:20:30;13.87;;;6.30;;
19358;SDS011;9815;52.334;20.890;2023-04-24T09:22:59;13.50;;;5.53;;
19358;SDS011;9815;52.334;20.890;2023-04-24T09:25:32;10.93;;;5.80;;
19358;SDS011;9815;52.334;20.890;2023-04-24T09:28:02;14.60;;;6.30;;
19358;SDS011;9815;52.334;20.890;2023-04-24T09:30:32;11.67;;;6.40;;
19358;SDS011;9815;52.334;20.890;2023-04-24T09:33:09;13.40;;;5.43;;
19358;SDS011;9815;52.334;20.890;2023-04-24T09:35:40;10.48;;;5.72;;
19358;SDS011;9815;52.334;20.890;2023-04-24T09:38:09;13.50;;;6.30;;
19358;SDS011;9815;52.334;20.890;2023-04-24T09:40:39;10.47;;;5.33;;
19358;SDS011;9815;52.334;20.890;2023-04-24T09:43:09;9.20;;;5.33;;
19358;SDS011;9815;52.334;20.890;2023-04-24T09:45:39;9.20;;;5.93;;
19358;SDS011;9815;52.334;20.890;2023-04-24T09:48:08;10.73;;;5.43;;
19358;SDS011;9815;52.334;20.890;2023-04-24T09:50:37;9.30;;;4.67;;
19358;SDS011;9815;52.334;20.890;2023-04-24T09:53:06;12.82;;;5.43;;
19358;SDS011;9815;52.334;20.890;2023-04-24T09:55:41;11.18;;;5.30;;
19358;SDS011;9815;52.334;20.890;2023-04-24T09:58:14;12.82;;;5.18;;
19358;SDS011;9815;52.334;20.890;2023-04-24T10:00:43;10.50;;;4.68;;
19358;SDS011;9815;52.334;20.890;2023-04-24T10:03:13;9.40;;;4.93;;
19358;SDS011;9815;52.334;20.890;2023-04-24T10:05:42;15.80;;;5.03;;
19358;SDS011;9815;52.334;20.890;2023-04-24T10:08:13;8.85;;;4.75;;
19358;SDS011;9815;52.334;20.890;2023-04-24T10:10:43;8.30;;;4.95;;
19358;SDS011;9815;52.334;20.890;2023-04-24T10:13:13;9.52;;;4.68;;
19358;SDS011;9815;52.334;20.890;2023-04-24T10:15:42;7.20;;;4.68;;
19358;SDS011;9815;52.334;20.890;2023-04-24T10:18:11;9.25;;;4.72;;
19358;SDS011;9815;52.334;20.890;2023-04-24T10:20:39;12.60;;;5.20;;
19358;SDS011;9815;52.334;20.890;2023-04-24T10:23:08;13.13;;;5.70;;
19358;SDS011;9815;52.334;20.890;2023-04-24T10:25:37;8.30;;;4.13;;
19358;SDS011;9815;52.334;20.890;2023-04-24T10:28:06;11.20;;;5.35;;
19358;SDS011;9815;52.334;20.890;2023-04-24T10:30:36;5.22;;;3.50;;
19358;SDS011;9815;52.334;20.890;2023-04-24T10:33:06;9.02;;;3.08;;
19358;SDS011;9815;52.334;20.890;2023-04-24T10:35:37;12.00;;;3.38;;
19358;SDS011;9815;52.334;20.890;2023-04-24T10:38:09;5.47;;;3.83;;
19358;SDS011;9815;52.334;20.890;2023-04-24T10:40:40;8.85;;;3.25;;
19358;SDS011;9815;52.334;20.890;2023-04-24T10:43:11;8.13;;;3.45;;
19358;SDS011;9815;52.334;20.890;2023-04-24T10:45:59;5.43;;;3.67;;
19358;SDS011;9815;52.334;20.890;2023-04-24T10:48:29;10.48;;;3.92;;
19358;SDS011;9815;52.334;20.890;2023-04-24T10:50:58;4.82;;;3.50;;
19358;SDS011;9815;52.334;20.890;2023-04-24T10:53:27;8.15;;;3.33;;
19358;SDS011;9815;52.334;20.890;2023-04-24T10:55:57;6.45;;;3.50;;
19358;SDS011;9815;52.334;20.890;2023-04-24T10:58:37;6.43;;;3.65;;
19358;SDS011;9815;52.334;20.890;2023-04-24T11:01:06;7.90;;;3.47;;
19358;SDS011;9815;52.334;20.890;2023-04-24T11:03:35;6.38;;;3.50;;
19358;SDS011;9815;52.334;20.890;2023-04-24T11:06:05;10.27;;;3.97;;
19358;SDS011;9815;52.334;20.890;2023-04-24T11:08:37;12.65;;;4.20;;
19358;SDS011;9815;52.334;20.890;2023-04-24T11:11:10;6.45;;;3.65;;
19358;SDS011;9815;52.334;20.890;2023-04-24T11:16:35;6.38;;;4.20;;
19358;SDS011;9815;52.334;20.890;2023-04-24T11:19:07;8.57;;;4.28;;
19358;SDS011;9815;52.334;20.890;2023-04-24T11:21:41;5.95;;;4.00;;
19358;SDS011;9815;52.334;20.890;2023-04-24T11:24:30;7.47;;;4.22;;
19358;SDS011;9815;52.334;20.890;2023-04-24T11:27:05;7.65;;;4.22;;
19358;SDS011;9815;52.334;20.890;2023-04-24T11:29:40;9.30;;;4.28;;
19358;SDS011;9815;52.334;20.890;2023-04-24T11:32:14;6.82;;;4.38;;
19358;SDS011;9815;52.334;20.890;2023-04-24T11:34:46;7.57;;;4.57;;
19358;SDS011;9815;52.334;20.890;2023-04-24T11:37:15;6.03;;;4.28;;
19358;SDS011;9815;52.334;20.890;2023-04-24T11:39:43;9.02;;;4.90;;
19358;SDS011;9815;52.334;20.890;2023-04-24T11:42:13;7.15;;;4.45;;
19358;SDS011;9815;52.334;20.890;2023-04-24T11:44:43;9.05;;;4.07;;
19358;SDS011;9815;52.334;20.890;2023-04-24T11:47:14;7.00;;;4.28;;
19358;SDS011;9815;52.334;20.890;2023-04-24T11:49:42;6.75;;;4.20;;
19358;SDS011;9815;52.334;20.890;2023-04-24T11:52:10;7.15;;;3.75;;
19358;SDS011;9815;52.334;20.890;2023-04-24T11:54:46;8.77;;;3.90;;
19358;SDS011;9815;52.334;20.890;2023-04-24T11:57:16;6.30;;;4.22;;
19358;SDS011;9815;52.334;20.890;2023-04-24T11:59:49;6.55;;;3.97;;
19358;SDS011;9815;52.334;20.890;2023-04-24T12:02:24;8.20;;;3.95;;
19358;SDS011;9815;52.334;20.890;2023-04-24T12:04:54;7.95;;;4.05;;
19358;SDS011;9815;52.334;20.890;2023-04-24T12:07:23;7.00;;;4.10;;
19358;SDS011;9815;52.334;20.890;2023-04-24T12:09:55;5.97;;;4.00;;
19358;SDS011;9815;52.334;20.890;2023-04-24T12:12:26;7.82;;;3.85;;
19358;SDS011;9815;52.334;20.890;2023-04-24T12:14:57;8.35;;;4.40;;
19358;SDS011;9815;52.334;20.890;2023-04-24T12:17:27;7.53;;;4.00;;
19358;SDS011;9815;52.334;20.890;2023-04-24T12:19:57;6.57;;;4.30;;
19358;SDS011;9815;52.334;20.890;2023-04-24T12:22:28;8.90;;;4.47;;
19358;SDS011;9815;52.334;20.890;2023-04-24T12:25:12;7.60;;;4.45;;
19358;SDS011;9815;52.334;20.890;2023-04-24T12:27:41;9.00;;;4.05;;
19358;SDS011;9815;52.334;20.890;2023-04-24T12:30:12;8.05;;;3.50;;
19358;SDS011;9815;52.334;20.890;2023-04-24T12:32:42;7.43;;;4.10;;
19358;SDS011;9815;52.334;20.890;2023-04-24T12:35:13;10.95;;;4.13;;
19358;SDS011;9815;52.334;20.890;2023-04-24T12:37:49;5.13;;;3.75;;
19358;SDS011;9815;52.334;20.890;2023-04-24T12:40:18;5.57;;;3.83;;
19358;SDS011;9815;52.334;20.890;2023-04-24T12:42:48;9.02;;;3.55;;
19358;SDS011;9815;52.334;20.890;2023-04-24T12:45:19;5.68;;;3.55;;
19358;SDS011;9815;52.334;20.890;2023-04-24T12:47:49;8.57;;;4.07;;
19358;SDS011;9815;52.334;20.890;2023-04-24T12:50:18;8.63;;;4.13;;
19358;SDS011;9815;52.334;20.890;2023-04-24T12:52:47;12.57;;;4.45;;
19358;SDS011;9815;52.334;20.890;2023-04-24T12:55:15;7.95;;;3.97;;
19358;SDS011;9815;52.334;20.890;2023-04-24T12:57:43;7.35;;;4.28;;
19358;SDS011;9815;52.334;20.890;2023-04-24T13:00:12;6.40;;;3.88;;
19358;SDS011;9815;52.334;20.890;2023-04-24T13:02:44;8.82;;;3.95;;
19358;SDS011;9815;52.334;20.890;2023-04-24T13:05:13;15.45;;;3.60;;
19358;SDS011;9815;52.334;20.890;2023-04-24T13:07:42;24.70;;;4.45;;
19358;SDS011;9815;52.334;20.890;2023-04-24T13:10:10;12.43;;;3.00;;
19358;SDS011;9815;52.334;20.890;2023-04-24T13:12:39;12.75;;;3.58;;
19358;SDS011;9815;52.334;20.890;2023-04-24T13:15:11;10.03;;;3.30;;
19358;SDS011;9815;52.334;20.890;2023-04-24T13:17:40;5.93;;;2.90;;
19358;SDS011;9815;52.334;20.890;2023-04-24T13:20:10;4.37;;;2.77;;
19358;SDS011;9815;52.334;20.890;2023-04-24T13:22:38;9.50;;;2.70;;
19358;SDS011;9815;52.334;20.890;2023-04-24T13:25:07;6.73;;;2.57;;
19358;SDS011;9815;52.334;20.890;2023-04-24T13:27:35;4.67;;;2.70;;
19358;SDS011;9815;52.334;20.890;2023-04-24T13:30:05;6.20;;;2.90;;
19358;SDS011;9815;52.334;20.890;2023-04-24T13:32:34;4.53;;;2.80;;
19358;SDS011;9815;52.334;20.890;2023-04-24T13:35:03;5.03;;;2.90;;
19358;SDS011;9815;52.334;20.890;2023-04-24T13:37:33;7.27;;;2.70;;
19358;SDS011;9815;52.334;20.890;2023-04-24T13:40:01;8.80;;;2.77;;
19358;SDS011;9815;52.334;20.890;2023-04-24T13:42:32;5.30;;;2.83;;
19358;SDS011;9815;52.334;20.890;2023-04-24T13:45:01;7.23;;;2.97;;
19358;SDS011;9815;52.334;20.890;2023-04-24T13:47:50;6.97;;;2.83;;
19358;SDS011;9815;52.334;20.890;2023-04-24T13:50:18;3.43;;;2.70;;
19358;SDS011;9815;52.334;20.890;2023-04-24T13:52:48;3.43;;;2.73;;
19358;SDS011;9815;52.334;20.890;2023-04-24T13:55:16;4.30;;;2.73;;
19358;SDS011;9815;52.334;20.890;2023-04-24T13:57:45;5.27;;;2.87;;
19358;SDS011;9815;52.334;20.890;2023-04-24T14:00:15;5.30;;;2.60;;
19358;SDS011;9815;52.334;20.890;2023-04-24T14:02:45;4.67;;;2.83;;
19358;SDS011;9815;52.334;20.890;2023-04-24T14:05:15;6.47;;;3.20;;
19358;SDS011;9815;52.334;20.890;2023-04-24T14:07:44;4.77;;;2.80;;
19358;SDS011;9815;52.334;20.890;2023-04-24T14:10:14;6.23;;;3.10;;
19358;SDS011;9815;52.334;20.890;2023-04-24T14:12:42;9.63;;;2.90;;
19358;SDS011;9815;52.334;20.890;2023-04-24T14:15:10;7.57;;;2.97;;
19358;SDS011;9815;52.334;20.890;2023-04-24T14:17:39;4.43;;;2.87;;
19358;SDS011;9815;52.334;20.890;2023-04-24T14:20:08;3.63;;;2.80;;
19358;SDS011;9815;52.334;20.890;2023-04-24T14:22:37;4.93;;;2.50;;
19358;SDS011;9815;52.334;20.890;2023-04-24T14:25:05;6.23;;;3.23;;
19358;SDS011;9815;52.334;20.890;2023-04-24T14:27:36;9.23;;;2.80;;
19358;SDS011;9815;52.334;20.890;2023-04-24T14:30:04;7.63;;;3.00;;
19358;SDS011;9815;52.334;20.890;2023-04-24T14:32:34;4.28;;;2.63;;
19358;SDS011;9815;52.334;20.890;2023-04-24T14:35:03;3.85;;;2.65;;
19358;SDS011;9815;52.334;20.890;2023-04-24T14:37:32;3.95;;;2.55;;
19358;SDS011;9815;52.334;20.890;2023-04-24T14:40:01;7.80;;;3.28;;
19358;SDS011;9815;52.334;20.890;2023-04-24T14:42:52;6.25;;;2.78;;
19358;SDS011;9815;52.334;20.890;2023-04-24T14:45:20;4.55;;;2.67;;
19358;SDS011;9815;52.334;20.890;2023-04-24T14:47:49;5.72;;;2.80;;
19358;SDS011;9815;52.334;20.890;2023-04-24T14:50:17;5.97;;;2.78;;
19358;SDS011;9815;52.334;20.890;2023-04-24T14:52:49;4.75;;;2.72;;
19358;SDS011;9815;52.334;20.890;2023-04-24T14:55:17;4.95;;;2.80;;
19358;SDS011;9815;52.334;20.890;2023-04-24T14:57:45;8.80;;;2.85;;